Terminal Aerodrome Forecast
Issued by NWS

Home | Current Version | Previous Version | Text Only | Print | Product List | Glossary On
Versions: 1 2 3 4 5 6 7 8 9 10 11 12 13 14 15 16 17 18 19 20 21 22 23 24 25
000
FTUS43 KMKX 232328
TAFUES
TAF
KUES 232328Z 2400/2424 30004KT P6SM OVC100
     FM240300 30008KT 6SM -RA OVC060
     FM240500 30009KT 5SM -RA OVC015
     FM240700 29010G19KT 4SM RA BR OVC008
     FM241900 31020G36KT 4SM -RA OVC020=

USA.gov is the U.S. government's official web portal to all federal, state and local government web resources and services.